createdAt,value
2023-03-27T00:00:16.919Z,2.72
2023-03-27T00:01:11.689Z,2.68
2023-03-27T00:02:03.665Z,2.70
2023-03-27T00:02:57.716Z,2.71
2023-03-27T00:03:50.996Z,2.68
2023-03-27T00:04:42.545Z,2.65
2023-03-27T00:05:34.006Z,2.64
2023-03-27T00:06:25.661Z,2.57
2023-03-27T00:07:17.575Z,2.58
2023-03-27T00:08:09.364Z,2.53
2023-03-27T00:09:03.142Z,2.50
2023-03-27T00:09:54.846Z,2.55
2023-03-27T00:10:48.337Z,2.54
2023-03-27T00:11:39.884Z,2.52
2023-03-27T00:12:31.391Z,2.55
2023-03-27T00:13:22.953Z,2.55
2023-03-27T00:14:14.851Z,2.55
2023-03-27T00:15:07.816Z,2.52
2023-03-27T00:16:00.068Z,2.54
2023-03-27T00:16:52.287Z,2.50
2023-03-27T00:17:49.414Z,2.46
2023-03-27T00:18:41.098Z,2.51
2023-03-27T00:19:33.841Z,2.56
2023-03-27T00:20:26.871Z,2.51
2023-03-27T00:21:19.243Z,2.52
2023-03-27T00:22:10.808Z,2.50
2023-03-27T00:23:02.416Z,2.47
2023-03-27T00:23:54.561Z,2.47
2023-03-27T00:24:46.387Z,2.56
2023-03-27T00:25:37.939Z,2.50
2023-03-27T00:26:30.579Z,2.49
2023-03-27T00:27:22.169Z,2.42
2023-03-27T00:28:14.179Z,2.38
2023-03-27T00:29:06.847Z,2.40
2023-03-27T00:29:58.597Z,2.42
2023-03-27T00:30:50.115Z,2.36
2023-03-27T00:31:41.852Z,2.35
2023-03-27T00:32:34.031Z,2.36
2023-03-27T00:33:26.449Z,2.38
2023-03-27T00:34:18.143Z,2.36
2023-03-27T00:35:10.137Z,2.34
2023-03-27T00:36:02.163Z,2.36
2023-03-27T00:36:53.854Z,2.32
2023-03-27T00:37:45.487Z,2.23
2023-03-27T00:38:37.262Z,2.21
2023-03-27T00:39:29.021Z,2.20
2023-03-27T00:40:20.638Z,2.27
2023-03-27T00:41:12.715Z,2.29
2023-03-27T00:42:04.388Z,2.28
2023-03-27T00:42:57.812Z,2.32
2023-03-27T00:43:53.360Z,2.34
2023-03-27T00:44:44.954Z,2.34
2023-03-27T00:45:37.765Z,2.39
2023-03-27T00:46:43.367Z,2.39
2023-03-27T00:47:39.261Z,2.34
2023-03-27T00:48:36.926Z,2.29
2023-03-27T00:49:34.422Z,2.26
2023-03-27T00:50:42.789Z,2.24
2023-03-27T00:51:37.895Z,2.22
2023-03-27T00:52:32.389Z,2.20
2023-03-27T00:53:28.554Z,2.16
2023-03-27T00:54:27.275Z,2.10
2023-03-27T00:55:22.305Z,2.07
2023-03-27T00:56:18.382Z,2.10
2023-03-27T00:57:16.292Z,2.09
2023-03-27T00:58:16.977Z,2.06
2023-03-27T00:59:16.018Z,2.05
2023-03-27T01:00:14.357Z,2.01
2023-03-27T01:01:10.179Z,1.97
2023-03-27T01:02:10.124Z,1.94
2023-03-27T01:03:06.707Z,1.91
2023-03-27T01:04:05.723Z,1.91
2023-03-27T01:04:57.286Z,1.89
2023-03-27T01:05:50.209Z,1.89
2023-03-27T01:06:42.459Z,1.88
2023-03-27T01:07:34.343Z,1.85
2023-03-27T01:08:31.823Z,1.81
2023-03-27T01:09:26.388Z,1.83
2023-03-27T01:10:19.795Z,1.83
2023-03-27T01:11:20.635Z,1.87
2023-03-27T01:12:36.153Z,1.85
2023-03-27T01:13:49.792Z,1.81
2023-03-27T01:15:02.915Z,1.78
2023-03-27T01:16:11.650Z,1.88
2023-03-27T01:17:24.833Z,1.89
2023-03-27T01:18:22.419Z,1.85
2023-03-27T01:19:45.814Z,1.85
2023-03-27T01:21:05.966Z,1.86
2023-03-27T01:22:03.427Z,1.89
2023-03-27T01:23:35.782Z,1.91
2023-03-27T01:25:20.549Z,1.87
2023-03-27T01:26:57.540Z,1.94
2023-03-27T01:28:10.413Z,1.98
2023-03-27T01:29:21.422Z,1.94
2023-03-27T01:30:26.375Z,1.94
2023-03-27T01:31:37.846Z,1.92
2023-03-27T01:32:48.022Z,1.94
2023-03-27T01:34:01.839Z,1.97
2023-03-27T01:35:06.133Z,2.03
2023-03-27T01:36:21.811Z,1.98
2023-03-27T01:37:30.842Z,1.96
2023-03-27T01:39:00.098Z,1.94
2023-03-27T01:40:16.561Z,1.89
2023-03-27T01:41:30.363Z,1.91
2023-03-27T01:42:44.187Z,1.85
2023-03-27T01:44:03.607Z,1.85
2023-03-27T01:45:03.137Z,1.78
2023-03-27T01:46:06.550Z,1.73
2023-03-27T01:47:18.052Z,1.74
2023-03-27T01:48:22.629Z,1.73
2023-03-27T01:49:17.012Z,1.68
2023-03-27T01:50:31.942Z,1.64
2023-03-27T01:51:48.526Z,1.63
2023-03-27T01:52:46.593Z,1.59
2023-03-27T01:53:47.042Z,1.61
2023-03-27T01:54:44.575Z,1.64
2023-03-27T01:55:43.272Z,1.70
2023-03-27T01:56:53.401Z,1.77
2023-03-27T01:58:00.694Z,1.74
2023-03-27T01:59:14.096Z,1.72
2023-03-27T02:00:19.404Z,1.66
2023-03-27T02:01:14.222Z,1.56
2023-03-27T02:02:14.207Z,1.55
2023-03-27T02:03:30.023Z,1.58
2023-03-27T02:04:30.375Z,1.57
2023-03-27T02:05:32.652Z,1.50
2023-03-27T02:06:49.886Z,1.48
2023-03-27T02:07:51.444Z,1.53
2023-03-27T02:08:53.385Z,1.52
2023-03-27T02:09:51.563Z,1.56
2023-03-27T02:10:49.807Z,1.53
2023-03-27T02:11:58.987Z,1.50
2023-03-27T02:13:01.468Z,1.61
2023-03-27T02:14:12.199Z,1.64
2023-03-27T02:15:24.009Z,1.67
2023-03-27T02:16:25.070Z,1.69
2023-03-27T02:17:20.639Z,1.67
2023-03-27T02:18:20.468Z,1.71
2023-03-27T02:19:35.222Z,1.78
2023-03-27T02:20:27.035Z,1.77
2023-03-27T02:21:23.538Z,1.79
2023-03-27T02:22:16.243Z,1.81
2023-03-27T02:23:12.720Z,1.83
2023-03-27T02:24:05.943Z,1.84
2023-03-27T02:24:57.482Z,1.80
2023-03-27T02:25:51.259Z,1.76
2023-03-27T02:26:43.285Z,1.79
2023-03-27T02:27:50.158Z,1.78
2023-03-27T02:28:48.393Z,1.80
2023-03-27T02:29:53.346Z,1.80
2023-03-27T02:30:54.206Z,1.80
2023-03-27T02:32:39.488Z,1.77
2023-03-27T02:33:52.222Z,1.74
2023-03-27T02:35:01.085Z,1.72
2023-03-27T02:35:55.742Z,1.64
2023-03-27T02:37:32.577Z,1.65
2023-03-27T02:39:03.590Z,1.74
2023-03-27T02:40:25.725Z,1.79
2023-03-27T02:41:42.916Z,1.76
2023-03-27T02:43:21.762Z,1.71
2023-03-27T02:44:35.417Z,1.65
2023-03-27T02:46:02.972Z,1.62
2023-03-27T02:47:04.784Z,1.56
2023-03-27T02:48:10.018Z,1.57
2023-03-27T02:49:09.604Z,1.61
2023-03-27T02:50:19.297Z,1.56
2023-03-27T02:51:19.453Z,1.61
2023-03-27T02:52:28.299Z,1.64
2023-03-27T02:53:25.933Z,1.66
2023-03-27T02:54:26.644Z,1.68
2023-03-27T02:55:27.580Z,1.65
2023-03-27T02:56:24.505Z,1.65
2023-03-27T02:57:24.820Z,1.67
2023-03-27T02:58:50.066Z,1.68
2023-03-27T03:00:21.140Z,1.63
2023-03-27T03:01:26.919Z,1.55
2023-03-27T03:02:38.014Z,1.63
2023-03-27T03:03:38.812Z,1.55
2023-03-27T03:04:59.973Z,1.52
2023-03-27T03:06:06.859Z,1.51
2023-03-27T03:06:59.216Z,1.48
2023-03-27T03:07:54.105Z,1.50
2023-03-27T03:08:49.695Z,1.50
2023-03-27T03:09:42.663Z,1.51
2023-03-27T03:10:34.346Z,1.54
2023-03-27T03:11:26.533Z,1.51
2023-03-27T03:12:19.922Z,1.49
2023-03-27T03:13:11.676Z,1.44
2023-03-27T03:14:07.323Z,1.43
2023-03-27T03:14:58.822Z,1.45
2023-03-27T03:15:50.684Z,1.50
2023-03-27T03:16:42.296Z,1.53
2023-03-27T03:17:34.781Z,1.52
2023-03-27T03:18:26.730Z,1.54
2023-03-27T03:19:19.894Z,1.59
2023-03-27T03:20:15.264Z,1.51
2023-03-27T03:21:07.062Z,1.51
2023-03-27T03:21:59.071Z,1.49
2023-03-27T03:22:50.723Z,1.45
2023-03-27T03:23:42.830Z,1.48
2023-03-27T03:24:51.181Z,1.38
2023-03-27T03:25:44.635Z,1.33
2023-03-27T03:26:36.410Z,1.28
2023-03-27T03:27:29.466Z,1.29
2023-03-27T03:28:30.129Z,1.35
2023-03-27T03:29:22.140Z,1.40
2023-03-27T03:30:35.041Z,1.40
2023-03-27T03:31:42.884Z,1.41
2023-03-27T03:32:35.496Z,1.31
2023-03-27T03:33:31.288Z,1.31
2023-03-27T03:34:23.244Z,1.31
2023-03-27T03:35:15.213Z,1.32
2023-03-27T03:36:07.433Z,1.30
2023-03-27T03:37:01.598Z,1.30
2023-03-27T03:37:59.481Z,1.34
2023-03-27T03:38:52.490Z,1.37
2023-03-27T03:39:44.966Z,1.35
2023-03-27T03:40:37.306Z,1.36
2023-03-27T03:41:28.775Z,1.35
2023-03-27T03:42:24.487Z,1.34
2023-03-27T03:43:17.540Z,1.28
2023-03-27T03:44:10.302Z,1.27
2023-03-27T03:45:03.231Z,1.28
2023-03-27T03:45:56.232Z,1.26
2023-03-27T03:46:49.669Z,1.25
2023-03-27T03:47:46.374Z,1.22
2023-03-27T03:48:37.829Z,1.25
2023-03-27T03:49:29.309Z,1.24
2023-03-27T03:50:20.817Z,1.24
2023-03-27T03:51:12.660Z,1.21
2023-03-27T03:52:04.959Z,1.20
2023-03-27T03:52:57.720Z,1.13
2023-03-27T03:53:49.620Z,1.11
2023-03-27T03:54:41.276Z,1.06
2023-03-27T03:55:35.555Z,1.04
2023-03-27T03:56:29.347Z,1.01
2023-03-27T03:57:21.554Z,0.98
2023-03-27T03:58:34.887Z,0.91
2023-03-27T03:59:29.981Z,0.92
2023-03-27T04:00:41.767Z,0.88
2023-03-27T04:01:48.099Z,0.83
2023-03-27T04:02:41.348Z,0.82
2023-03-27T04:03:36.529Z,0.79
2023-03-27T04:04:29.389Z,0.72
2023-03-27T04:05:36.788Z,0.65
2023-03-27T04:06:31.247Z,0.63
2023-03-27T04:07:25.125Z,0.58
2023-03-27T04:08:20.728Z,0.56
2023-03-27T04:09:28.454Z,0.61
2023-03-27T04:10:29.925Z,0.62
2023-03-27T04:11:23.168Z,0.58
2023-03-27T04:12:37.727Z,0.58
2023-03-27T04:13:34.983Z,0.59
2023-03-27T04:14:37.006Z,0.60
2023-03-27T04:15:37.897Z,0.58
2023-03-27T04:16:40.828Z,0.62
2023-03-27T04:17:42.267Z,0.71
2023-03-27T04:18:35.298Z,0.70
2023-03-27T04:19:31.890Z,0.70
2023-03-27T04:20:28.881Z,0.71
2023-03-27T04:21:21.324Z,0.73
2023-03-27T04:22:17.126Z,0.75
2023-03-27T04:23:08.996Z,0.71
2023-03-27T04:24:03.040Z,0.70
2023-03-27T04:25:10.855Z,0.71
2023-03-27T04:26:03.888Z,0.71
2023-03-27T04:27:24.288Z,0.67
2023-03-27T04:28:24.056Z,0.76
2023-03-27T04:29:32.063Z,0.72
2023-03-27T04:30:25.369Z,0.69
2023-03-27T04:31:46.356Z,0.65
2023-03-27T04:32:59.851Z,0.62
2023-03-27T04:34:03.676Z,0.57
2023-03-27T04:35:15.670Z,0.53
2023-03-27T04:36:17.206Z,0.50
2023-03-27T04:37:23.350Z,0.47
2023-03-27T04:38:31.718Z,0.50
2023-03-27T04:39:24.715Z,0.50
2023-03-27T04:40:19.382Z,0.50
2023-03-27T04:41:11.297Z,0.46
2023-03-27T04:42:04.349Z,0.42
2023-03-27T04:42:57.752Z,0.42
2023-03-27T04:43:49.406Z,0.37
2023-03-27T04:44:41.897Z,0.37
2023-03-27T04:45:33.622Z,0.36
2023-03-27T04:46:25.917Z,0.32
2023-03-27T04:47:24.342Z,0.32
2023-03-27T04:48:23.349Z,0.28
2023-03-27T04:49:19.328Z,0.27
2023-03-27T04:50:32.686Z,0.36
2023-03-27T04:51:26.902Z,0.38
2023-03-27T04:52:19.664Z,0.36
2023-03-27T04:53:12.506Z,0.28
2023-03-27T04:54:10.169Z,0.30
2023-03-27T04:55:08.222Z,0.25
2023-03-27T04:56:01.393Z,0.34
2023-03-27T04:56:54.330Z,0.33
2023-03-27T04:57:47.468Z,0.37
2023-03-27T04:58:41.529Z,0.39
2023-03-27T04:59:37.731Z,0.40
2023-03-27T05:00:50.796Z,0.36
2023-03-27T05:02:14.515Z,0.36
2023-03-27T05:03:13.597Z,0.31
2023-03-27T05:04:18.705Z,0.31
2023-03-27T05:05:28.978Z,0.26
2023-03-27T05:06:21.199Z,0.22
2023-03-27T05:07:15.284Z,0.22
2023-03-27T05:08:06.790Z,0.19
2023-03-27T05:08:59.621Z,0.14
2023-03-27T05:09:57.400Z,0.10
2023-03-27T05:10:52.679Z,0.06
2023-03-27T05:11:49.685Z,0.05
2023-03-27T05:12:47.025Z,0.07
2023-03-27T05:13:40.806Z,0.02
2023-03-27T05:14:34.102Z,0.06
2023-03-27T05:15:26.312Z,0.07
2023-03-27T05:16:19.564Z,0.12
2023-03-27T05:17:16.865Z,0.13
2023-03-27T05:18:10.362Z,0.13
2023-03-27T05:19:03.827Z,0.13
2023-03-27T05:20:03.494Z,0.17
2023-03-27T05:21:00.607Z,0.25
2023-03-27T05:21:52.567Z,0.28
2023-03-27T05:22:45.048Z,0.29
2023-03-27T05:24:03.420Z,0.30
2023-03-27T05:24:54.899Z,0.36
2023-03-27T05:25:59.723Z,0.36
2023-03-27T05:26:59.690Z,0.36
2023-03-27T05:27:52.901Z,0.37
2023-03-27T05:28:44.985Z,0.36
2023-03-27T05:29:46.487Z,0.36
2023-03-27T05:30:42.523Z,0.36
2023-03-27T05:31:55.112Z,0.38
2023-03-27T05:33:04.226Z,0.41
2023-03-27T05:33:55.854Z,0.42
2023-03-27T05:34:50.714Z,0.45
2023-03-27T05:35:46.352Z,0.52
2023-03-27T05:36:38.339Z,0.55
2023-03-27T05:37:30.475Z,0.58
2023-03-27T05:38:42.522Z,0.69
2023-03-27T05:39:38.247Z,0.72
2023-03-27T05:40:34.727Z,0.74
2023-03-27T05:41:27.662Z,0.73
2023-03-27T05:42:19.449Z,0.77
2023-03-27T05:43:11.104Z,0.79
2023-03-27T05:44:03.652Z,0.78
2023-03-27T05:45:00.033Z,0.81
2023-03-27T05:45:52.212Z,0.82
2023-03-27T05:46:45.620Z,0.82
2023-03-27T05:47:54.000Z,0.85
2023-03-27T05:48:46.324Z,0.85
2023-03-27T05:49:38.195Z,0.84
2023-03-27T05:50:37.143Z,0.86
2023-03-27T05:51:34.085Z,0.93
2023-03-27T05:52:28.765Z,0.93
2023-03-27T05:53:28.628Z,0.95
2023-03-27T05:54:39.331Z,0.96
2023-03-27T05:55:34.123Z,0.97
2023-03-27T05:56:26.965Z,0.96
2023-03-27T05:57:22.184Z,0.95
2023-03-27T05:58:18.545Z,0.96
2023-03-27T05:59:11.717Z,0.98
2023-03-27T06:00:11.544Z,0.99
2023-03-27T06:01:08.048Z,1.04
2023-03-27T06:02:00.142Z,1.08
2023-03-27T06:03:04.267Z,1.13
2023-03-27T06:04:22.977Z,1.18
2023-03-27T06:05:29.918Z,1.24
2023-03-27T06:06:22.018Z,1.28
2023-03-27T06:07:21.824Z,1.33
2023-03-27T06:08:13.571Z,1.39
2023-03-27T06:09:06.407Z,1.42
2023-03-27T06:09:59.024Z,1.46
2023-03-27T06:10:59.541Z,1.48
2023-03-27T06:11:58.701Z,1.49
2023-03-27T06:13:00.213Z,1.54
2023-03-27T06:13:59.626Z,1.57
2023-03-27T06:15:08.414Z,1.61
2023-03-27T06:16:06.197Z,1.63
2023-03-27T06:17:03.747Z,1.63
2023-03-27T06:18:06.058Z,1.61
2023-03-27T06:19:01.385Z,1.63
2023-03-27T06:19:53.269Z,1.62
2023-03-27T06:20:44.731Z,1.58
2023-03-27T06:21:36.908Z,1.57
2023-03-27T06:22:28.778Z,1.65
2023-03-27T06:23:20.915Z,1.66
2023-03-27T06:24:12.376Z,1.65
2023-03-27T06:25:06.391Z,1.66
2023-03-27T06:25:58.835Z,1.66
2023-03-27T06:26:51.580Z,1.68
2023-03-27T06:27:47.451Z,1.74
2023-03-27T06:28:39.301Z,1.79
2023-03-27T06:29:31.277Z,1.79
2023-03-27T06:30:25.815Z,1.78
2023-03-27T06:31:44.050Z,1.83
2023-03-27T06:32:50.736Z,1.87
2023-03-27T06:33:43.592Z,1.87
2023-03-27T06:34:50.030Z,1.93
2023-03-27T06:36:12.456Z,1.99
2023-03-27T06:37:06.070Z,2.12
2023-03-27T06:38:04.557Z,2.17
2023-03-27T06:38:56.450Z,2.27
2023-03-27T06:39:50.599Z,2.35
2023-03-27T06:40:42.976Z,2.39
2023-03-27T06:41:35.873Z,2.41
2023-03-27T06:42:38.128Z,2.44
2023-03-27T06:43:58.884Z,2.47
2023-03-27T06:44:58.168Z,2.52
2023-03-27T06:46:09.929Z,2.55
2023-03-27T06:47:19.992Z,2.59
2023-03-27T06:48:31.841Z,2.65
2023-03-27T06:49:26.952Z,2.74
2023-03-27T06:50:20.978Z,2.78
2023-03-27T06:51:15.872Z,2.79
2023-03-27T06:52:07.842Z,2.83
2023-03-27T06:53:00.208Z,2.82
2023-03-27T06:54:07.193Z,2.82
2023-03-27T06:54:59.808Z,2.82
2023-03-27T06:55:51.539Z,2.79
2023-03-27T06:56:44.277Z,2.76
2023-03-27T06:57:45.803Z,2.81
2023-03-27T06:58:39.340Z,2.81
2023-03-27T06:59:32.365Z,2.81
2023-03-27T07:00:35.015Z,2.84
2023-03-27T07:01:55.887Z,2.90
2023-03-27T07:03:05.040Z,2.84
2023-03-27T07:04:11.434Z,2.76
2023-03-27T07:05:26.942Z,2.78
2023-03-27T07:06:19.354Z,2.83
2023-03-27T07:07:16.753Z,2.85
2023-03-27T07:09:11.527Z,2.89
2023-03-27T07:10:04.098Z,2.88
2023-03-27T07:11:10.950Z,2.88
2023-03-27T07:12:09.311Z,2.92
2023-03-27T07:13:02.791Z,2.97
2023-03-27T07:13:54.497Z,2.99
2023-03-27T07:14:51.950Z,3.04
2023-03-27T07:15:43.498Z,3.10
2023-03-27T07:16:35.744Z,3.21
2023-03-27T07:17:34.891Z,3.25
2023-03-27T07:18:37.805Z,3.28
2023-03-27T07:19:29.519Z,3.33
2023-03-27T07:20:35.108Z,3.25
2023-03-27T07:21:32.144Z,3.27
2023-03-27T07:22:24.801Z,3.25
2023-03-27T07:23:16.443Z,3.21
2023-03-27T07:24:16.484Z,3.21
2023-03-27T07:25:12.203Z,3.24
2023-03-27T07:26:07.226Z,3.29
2023-03-27T07:27:17.234Z,3.27
2023-03-27T07:28:16.917Z,3.37
2023-03-27T07:29:10.899Z,3.38
2023-03-27T07:30:03.731Z,3.42
2023-03-27T07:30:56.234Z,3.45
2023-03-27T07:31:57.633Z,3.48
2023-03-27T07:32:58.482Z,3.51
2023-03-27T07:33:51.539Z,3.54
2023-03-27T07:34:51.428Z,3.61
2023-03-27T07:36:18.742Z,3.75
2023-03-27T07:37:29.989Z,3.80
2023-03-27T07:38:41.995Z,3.86
2023-03-27T07:39:45.657Z,3.96
2023-03-27T07:40:40.633Z,3.95
2023-03-27T07:41:50.221Z,3.91
2023-03-27T07:42:51.286Z,3.88
2023-03-27T07:43:43.832Z,3.81
2023-03-27T07:44:36.053Z,3.76
2023-03-27T07:45:31.982Z,3.70
2023-03-27T07:46:24.170Z,3.67
2023-03-27T07:47:17.561Z,3.61
2023-03-27T07:48:18.666Z,3.55
2023-03-27T07:49:11.291Z,3.51
2023-03-27T07:50:03.490Z,3.48
2023-03-27T07:51:12.836Z,3.49
2023-03-27T07:52:06.548Z,3.49
2023-03-27T07:53:03.905Z,3.52
2023-03-27T07:53:58.454Z,3.53
2023-03-27T07:54:56.805Z,3.61
2023-03-27T07:55:53.637Z,3.63
2023-03-27T07:56:45.300Z,3.70
2023-03-27T07:58:07.000Z,3.78
2023-03-27T07:59:01.844Z,3.78
2023-03-27T07:59:54.636Z,3.80
2023-03-27T08:01:01.837Z,3.77
2023-03-27T08:01:55.853Z,3.70
2023-03-27T08:02:51.832Z,3.74
2023-03-27T08:03:44.559Z,3.78
2023-03-27T08:04:36.895Z,3.76
2023-03-27T08:05:31.052Z,3.71
2023-03-27T08:06:31.199Z,3.71
2023-03-27T08:07:24.461Z,3.75
2023-03-27T08:08:16.287Z,3.77
2023-03-27T08:09:21.453Z,3.81
2023-03-27T08:10:14.353Z,3.87
2023-03-27T08:11:29.681Z,3.90
2023-03-27T08:12:22.435Z,4.07
2023-03-27T08:13:21.750Z,4.09
2023-03-27T08:14:13.579Z,4.16
2023-03-27T08:15:06.887Z,4.28
2023-03-27T08:16:10.563Z,4.31
2023-03-27T08:17:12.812Z,4.36
2023-03-27T08:18:08.877Z,4.45
2023-03-27T08:19:02.069Z,4.53
2023-03-27T08:19:53.896Z,4.56
2023-03-27T08:20:47.793Z,4.65
2023-03-27T08:21:39.599Z,4.69
2023-03-27T08:22:32.059Z,4.75
2023-03-27T08:23:42.639Z,4.88
2023-03-27T08:24:53.134Z,5.07
2023-03-27T08:25:50.454Z,5.17
2023-03-27T08:26:45.733Z,5.17
2023-03-27T08:27:38.100Z,5.19
2023-03-27T08:28:35.552Z,5.17
2023-03-27T08:29:27.467Z,5.21
2023-03-27T08:30:20.200Z,5.15
2023-03-27T08:31:16.569Z,5.27
2023-03-27T08:32:10.966Z,5.33
2023-03-27T08:33:05.149Z,5.31
2023-03-27T08:33:57.280Z,5.32
2023-03-27T08:34:51.893Z,5.26
2023-03-27T08:35:48.943Z,5.19
2023-03-27T08:36:41.483Z,5.27
2023-03-27T08:37:34.832Z,5.36
2023-03-27T08:39:02.512Z,5.41
2023-03-27T08:40:02.830Z,5.40
2023-03-27T08:40:59.181Z,5.31
2023-03-27T08:41:59.185Z,5.36
2023-03-27T08:43:11.791Z,5.38
2023-03-27T08:44:03.986Z,5.50
2023-03-27T08:44:57.696Z,5.50
2023-03-27T08:46:13.369Z,5.40
2023-03-27T08:47:39.018Z,5.36
2023-03-27T08:48:56.283Z,5.28
2023-03-27T08:49:56.690Z,5.32
2023-03-27T08:51:06.346Z,5.34
2023-03-27T08:52:04.117Z,5.35
2023-03-27T08:52:55.819Z,5.45
2023-03-27T08:54:04.205Z,5.53
2023-03-27T08:55:12.160Z,5.56
2023-03-27T08:56:17.206Z,5.57
2023-03-27T08:57:31.509Z,5.48
2023-03-27T08:58:29.133Z,5.46
2023-03-27T08:59:36.887Z,5.53
2023-03-27T09:00:36.183Z,5.58
2023-03-27T09:02:16.304Z,5.59
2023-03-27T09:03:35.965Z,5.51
2023-03-27T09:04:53.945Z,5.50
2023-03-27T09:05:57.991Z,5.53
2023-03-27T09:07:07.042Z,5.58
2023-03-27T09:08:05.106Z,5.59
2023-03-27T09:09:07.010Z,5.80
2023-03-27T09:10:06.871Z,5.94
2023-03-27T09:11:19.843Z,6.20
2023-03-27T09:12:38.337Z,6.25
2023-03-27T09:13:45.187Z,6.19
2023-03-27T09:14:43.934Z,6.25
2023-03-27T09:15:54.776Z,6.22
2023-03-27T09:16:50.275Z,6.19
2023-03-27T09:18:23.445Z,6.15
2023-03-27T09:19:42.392Z,6.13
2023-03-27T09:20:45.829Z,5.97
2023-03-27T09:21:46.567Z,5.95
2023-03-27T09:22:48.599Z,6.01
2023-03-27T09:23:48.240Z,6.06
2023-03-27T09:24:46.495Z,6.07
2023-03-27T09:26:05.864Z,5.96
2023-03-27T09:27:35.060Z,5.79
2023-03-27T09:29:22.194Z,5.89
2023-03-27T09:30:27.927Z,5.95
2023-03-27T09:31:30.531Z,6.01
2023-03-27T09:32:23.691Z,6.10
2023-03-27T09:33:16.201Z,6.14
2023-03-27T09:34:15.671Z,6.21
2023-03-27T09:35:15.220Z,6.12
2023-03-27T09:36:07.190Z,6.04
2023-03-27T09:37:00.567Z,6.05
2023-03-27T09:38:01.094Z,6.09
2023-03-27T09:38:58.567Z,6.01
2023-03-27T09:39:53.251Z,5.85
2023-03-27T09:41:01.460Z,5.81
2023-03-27T09:42:06.984Z,5.62
2023-03-27T09:43:17.384Z,5.49
2023-03-27T09:44:27.716Z,5.45
2023-03-27T09:45:25.387Z,5.46
2023-03-27T09:46:28.897Z,5.56
2023-03-27T09:47:36.264Z,5.65
2023-03-27T09:48:46.885Z,5.77
2023-03-27T09:49:47.471Z,5.81
2023-03-27T09:50:47.576Z,5.92
2023-03-27T09:52:02.707Z,6.00
2023-03-27T09:53:25.186Z,6.08
2023-03-27T09:54:32.248Z,6.21
2023-03-27T09:55:31.479Z,6.24
2023-03-27T09:56:29.875Z,6.37
2023-03-27T09:57:22.344Z,6.51
2023-03-27T09:58:31.289Z,6.64
2023-03-27T09:59:33.353Z,6.58
2023-03-27T10:00:34.800Z,6.56
2023-03-27T10:01:34.558Z,6.39
2023-03-27T10:02:41.384Z,6.25
2023-03-27T10:03:42.207Z,6.17
2023-03-27T10:04:35.924Z,6.07
2023-03-27T10:05:28.018Z,6.01
2023-03-27T10:06:38.604Z,6.07
2023-03-27T10:07:41.671Z,6.27
2023-03-27T10:09:06.997Z,6.53
2023-03-27T10:10:09.234Z,6.75
2023-03-27T10:11:25.097Z,6.88
2023-03-27T10:12:22.185Z,6.99
2023-03-27T10:13:16.546Z,7.03
2023-03-27T10:14:18.724Z,6.94
2023-03-27T10:15:29.097Z,6.86
2023-03-27T10:16:22.850Z,6.72
2023-03-27T10:17:36.872Z,6.70
2023-03-27T10:18:43.937Z,6.71
2023-03-27T10:19:44.716Z,6.58
2023-03-27T10:20:37.416Z,6.50
2023-03-27T10:21:33.471Z,6.30
2023-03-27T10:22:31.996Z,5.93
2023-03-27T10:23:26.774Z,5.70
2023-03-27T10:24:26.211Z,5.59
2023-03-27T10:25:51.325Z,5.59
2023-03-27T10:26:52.328Z,5.68
2023-03-27T10:27:44.137Z,5.81
2023-03-27T10:29:21.184Z,6.14
2023-03-27T10:30:25.991Z,6.32
2023-03-27T10:31:29.528Z,6.46
2023-03-27T10:32:47.907Z,6.71
2023-03-27T10:34:06.102Z,6.68
2023-03-27T10:35:36.495Z,6.79
2023-03-27T10:36:40.411Z,6.66
2023-03-27T10:37:41.333Z,6.72
2023-03-27T10:39:17.720Z,6.58
2023-03-27T10:40:36.668Z,6.42
2023-03-27T10:41:38.862Z,6.38
2023-03-27T10:42:37.677Z,6.32
2023-03-27T10:43:40.405Z,6.29
2023-03-27T10:44:37.504Z,6.22
2023-03-27T10:45:32.814Z,6.15
2023-03-27T10:46:29.898Z,6.11
2023-03-27T10:47:34.876Z,6.14
2023-03-27T10:48:44.824Z,6.22
2023-03-27T10:49:58.734Z,6.32
2023-03-27T10:51:04.296Z,6.45
2023-03-27T10:52:32.691Z,6.47
2023-03-27T10:53:49.079Z,6.67
2023-03-27T10:55:07.877Z,6.85
2023-03-27T10:56:26.250Z,6.85
2023-03-27T10:57:37.216Z,7.05
2023-03-27T10:58:49.265Z,7.22
2023-03-27T11:00:13.597Z,7.15
2023-03-27T11:01:35.833Z,7.09
2023-03-27T11:02:43.882Z,7.25
2023-03-27T11:04:06.653Z,7.39
2023-03-27T11:05:15.419Z,7.45
2023-03-27T11:06:16.413Z,7.65
2023-03-27T11:07:20.668Z,7.67
2023-03-27T11:08:34.069Z,7.59
2023-03-27T11:09:42.570Z,7.34
2023-03-27T11:10:41.553Z,7.24
2023-03-27T11:11:42.519Z,7.17
2023-03-27T11:12:38.382Z,7.20
2023-03-27T11:13:35.562Z,7.31
2023-03-27T11:14:45.352Z,7.41
2023-03-27T11:15:51.303Z,7.64
2023-03-27T11:17:23.780Z,7.86
2023-03-27T11:19:26.914Z,7.92
2023-03-27T11:20:56.473Z,8.15
2023-03-27T11:22:07.770Z,8.17
2023-03-27T11:23:11.939Z,8.03
2023-03-27T11:24:51.935Z,8.02
2023-03-27T11:25:51.569Z,8.01
2023-03-27T11:27:03.707Z,7.86
2023-03-27T11:28:36.363Z,7.74
2023-03-27T11:29:35.741Z,7.63
2023-03-27T11:30:36.430Z,7.70
2023-03-27T11:31:45.970Z,7.59
2023-03-27T11:33:05.763Z,7.64
2023-03-27T11:34:13.141Z,7.66
2023-03-27T11:35:14.737Z,7.73
2023-03-27T11:36:35.819Z,7.72
2023-03-27T11:37:59.619Z,7.69
2023-03-27T11:39:15.224Z,7.60
2023-03-27T11:40:20.070Z,7.42
2023-03-27T11:41:15.538Z,7.09
2023-03-27T11:42:23.754Z,6.91
2023-03-27T11:43:17.940Z,6.91
2023-03-27T11:44:11.276Z,6.86
2023-03-27T11:45:27.376Z,6.70
2023-03-27T11:46:31.194Z,6.36
2023-03-27T11:47:46.670Z,6.25
2023-03-27T11:49:00.669Z,6.06
2023-03-27T11:50:16.342Z,5.87
2023-03-27T11:51:33.250Z,5.69
2023-03-27T11:52:55.452Z,5.58
2023-03-27T11:54:09.775Z,5.71
2023-03-27T11:55:37.281Z,5.72
2023-03-27T11:56:52.776Z,5.74
2023-03-27T11:58:23.546Z,5.56
2023-03-27T11:59:53.736Z,5.58
2023-03-27T12:00:54.389Z,5.37
2023-03-27T12:01:57.013Z,5.25
2023-03-27T12:03:07.615Z,5.08
2023-03-27T12:04:13.556Z,4.93
2023-03-27T12:05:57.293Z,4.80
2023-03-27T12:07:09.829Z,4.60
2023-03-27T12:08:13.567Z,4.44
2023-03-27T12:09:31.894Z,4.35
2023-03-27T12:10:47.405Z,4.35
2023-03-27T12:11:58.082Z,4.37
2023-03-27T12:13:55.041Z,4.29
2023-03-27T12:15:21.270Z,4.34
2023-03-27T12:16:16.856Z,4.34
2023-03-27T12:17:36.686Z,4.29
2023-03-27T12:19:03.935Z,4.26
2023-03-27T12:20:32.886Z,4.25
2023-03-27T12:21:56.071Z,4.25
2023-03-27T12:22:58.324Z,4.16
2023-03-27T12:24:19.007Z,4.15
2023-03-27T12:25:59.964Z,4.13
2023-03-27T12:27:42.108Z,4.17
2023-03-27T12:29:03.000Z,4.14
2023-03-27T12:30:20.607Z,4.17
2023-03-27T12:31:30.852Z,4.29
2023-03-27T12:32:23.377Z,4.32
2023-03-27T12:33:42.344Z,4.18
2023-03-27T12:34:50.350Z,4.18
2023-03-27T12:35:48.808Z,4.30
2023-03-27T12:36:48.151Z,4.35
2023-03-27T12:38:03.096Z,4.36
2023-03-27T12:38:59.213Z,4.58
2023-03-27T12:39:57.888Z,4.77
2023-03-27T12:41:02.789Z,4.92
2023-03-27T12:42:14.224Z,5.15
2023-03-27T12:43:26.598Z,5.37
2023-03-27T12:44:30.741Z,5.44
2023-03-27T12:45:27.625Z,5.48
2023-03-27T12:46:24.217Z,5.58
2023-03-27T12:47:24.188Z,5.71
2023-03-27T12:48:27.430Z,5.82
2023-03-27T12:49:19.492Z,5.85
2023-03-27T12:50:27.284Z,5.73
2023-03-27T12:51:51.000Z,5.76
2023-03-27T12:52:57.632Z,5.93
2023-03-27T12:53:56.991Z,6.07
2023-03-27T12:55:07.040Z,6.26
2023-03-27T12:56:25.516Z,6.53
2023-03-27T12:57:25.098Z,6.62
2023-03-27T12:58:34.011Z,6.79
2023-03-27T12:59:48.321Z,6.80
2023-03-27T13:00:40.733Z,6.75
2023-03-27T13:01:51.848Z,6.76
2023-03-27T13:02:59.749Z,6.84
2023-03-27T13:04:13.445Z,6.97
2023-03-27T13:05:30.349Z,7.03
2023-03-27T13:06:33.463Z,7.10
2023-03-27T13:07:41.962Z,7.16
2023-03-27T13:08:46.684Z,7.26
2023-03-27T13:10:20.555Z,7.39
2023-03-27T13:11:43.598Z,7.46
2023-03-27T13:13:06.860Z,7.53
2023-03-27T13:14:21.481Z,7.32
2023-03-27T13:15:49.548Z,7.26
2023-03-27T13:16:58.247Z,7.28
2023-03-27T13:18:27.170Z,7.12
2023-03-27T13:19:25.842Z,7.03
2023-03-27T13:21:03.535Z,6.58
2023-03-27T13:22:03.846Z,6.20
2023-03-27T13:23:28.842Z,5.89
2023-03-27T13:24:55.794Z,5.44
2023-03-27T13:26:17.355Z,4.81
2023-03-27T13:27:27.556Z,4.22
2023-03-27T13:28:29.645Z,3.94
2023-03-27T13:29:34.838Z,3.48
2023-03-27T13:30:50.382Z,3.25
2023-03-27T13:32:37.645Z,3.13
2023-03-27T13:33:48.053Z,3.03
2023-03-27T13:35:23.533Z,2.97
2023-03-27T13:36:24.677Z,3.01
2023-03-27T13:37:16.822Z,3.09
2023-03-27T13:38:13.416Z,3.14
2023-03-27T13:39:24.694Z,3.21
2023-03-27T13:40:33.207Z,3.25
2023-03-27T13:41:55.406Z,3.28
2023-03-27T13:43:10.274Z,3.28
2023-03-27T13:44:10.155Z,3.25
2023-03-27T13:45:19.037Z,3.27
2023-03-27T13:46:41.742Z,3.24
2023-03-27T13:48:05.289Z,3.28
2023-03-27T13:49:20.971Z,3.33
2023-03-27T13:51:02.772Z,3.26
2023-03-27T13:51:54.584Z,3.27
2023-03-27T13:53:22.435Z,3.32
2023-03-27T13:54:36.940Z,3.26
2023-03-27T13:55:49.906Z,3.26
2023-03-27T13:57:21.937Z,3.40
2023-03-27T13:58:42.240Z,3.45
2023-03-27T14:00:11.365Z,3.53